createdAt,value
2019-03-21T00:00:21.479Z,100310.23
2019-03-21T00:05:28.949Z,100313.31
2019-03-21T00:11:12.163Z,100318.44
2019-03-21T00:16:18.497Z,100319.41
2019-03-21T00:21:24.321Z,100325.50
2019-03-21T00:26:31.338Z,100323.86
2019-03-21T00:31:37.228Z,100320.93
2019-03-21T00:36:43.142Z,100325.36
2019-03-21T00:41:48.899Z,100327.23
2019-03-21T00:46:55.130Z,100324.02
2019-03-21T00:52:00.872Z,100328.81
2019-03-21T00:57:06.647Z,100333.14
2019-03-21T01:02:12.442Z,100329.78
2019-03-21T01:07:18.193Z,100323.25
2019-03-21T01:12:23.996Z,100325.83
2019-03-21T01:17:29.823Z,100322.39
2019-03-21T01:22:35.583Z,100322.80
2019-03-21T01:27:41.407Z,100324.77
2019-03-21T01:32:47.940Z,100313.10
2019-03-21T01:37:53.771Z,100314.28
2019-03-21T01:42:59.547Z,100309.15
2019-03-21T01:48:05.467Z,100310.39
2019-03-21T01:53:11.208Z,100310.39
2019-03-21T01:58:17.073Z,100303.78
2019-03-21T02:03:22.919Z,100307.23
2019-03-21T02:08:29.850Z,100297.27
2019-03-21T02:13:35.742Z,100298.75
2019-03-21T02:18:41.507Z,100300.02
2019-03-21T02:23:47.274Z,100298.19
2019-03-21T02:28:53.244Z,100296.44
2019-03-21T02:33:59.154Z,100303.97
2019-03-21T02:39:05.967Z,100299.67
2019-03-21T02:44:11.905Z,100303.44
2019-03-21T02:49:17.895Z,100298.43
2019-03-21T02:54:24.228Z,100297.12
2019-03-21T02:59:30.029Z,100287.25
2019-03-21T03:04:35.825Z,100288.80
2019-03-21T03:09:41.727Z,100293.44
2019-03-21T03:14:47.475Z,100295.52
2019-03-21T03:19:53.273Z,100290.03
2019-03-21T03:24:59.472Z,100287.55
2019-03-21T03:30:05.795Z,100288.47
2019-03-21T03:35:12.358Z,100295.61
2019-03-21T03:40:21.291Z,100290.86
2019-03-21T03:45:37.316Z,100297.16
2019-03-21T03:50:37.710Z,100301.11
2019-03-21T03:55:43.585Z,100302.06
2019-03-21T04:00:49.423Z,100304.30
2019-03-21T04:05:55.233Z,100313.36
2019-03-21T04:11:01.173Z,100312.25
2019-03-21T04:16:07.154Z,100308.63
2019-03-21T04:21:13.025Z,100313.41
2019-03-21T04:26:25.460Z,100319.87
2019-03-21T04:31:31.202Z,100322.44
2019-03-21T04:36:36.952Z,100315.88
2019-03-21T04:41:43.438Z,100314.19
2019-03-21T04:46:49.197Z,100312.97
2019-03-21T04:51:55.268Z,100315.64
2019-03-21T04:57:01.012Z,100323.53
2019-03-21T05:02:06.727Z,100325.28
2019-03-21T05:07:12.864Z,100325.05
2019-03-21T05:12:18.618Z,100326.45
2019-03-21T05:17:24.414Z,100327.41
2019-03-21T05:22:32.299Z,100338.09
2019-03-21T05:27:38.994Z,100331.16
2019-03-21T05:32:44.786Z,100338.34
2019-03-21T05:37:50.640Z,100339.19
2019-03-21T05:43:00.607Z,100344.18
2019-03-21T05:48:06.464Z,100344.45
2019-03-21T05:53:12.777Z,100347.95
2019-03-21T05:58:18.694Z,100340.37
2019-03-21T06:03:27.834Z,100357.33
2019-03-21T06:08:36.429Z,100353.88
2019-03-21T06:13:42.278Z,100348.69
2019-03-21T06:18:57.930Z,100355.03
2019-03-21T06:24:22.082Z,100348.53
2019-03-21T06:29:28.000Z,100354.63
2019-03-21T06:34:33.853Z,100355.19
2019-03-21T06:39:39.602Z,100356.47
2019-03-21T06:44:46.330Z,100364.38
2019-03-21T06:49:52.135Z,100353.10
2019-03-21T06:54:59.859Z,100353.95
2019-03-21T07:00:07.205Z,100363.98
2019-03-21T07:05:13.079Z,100370.89
2019-03-21T07:10:18.911Z,100375.04
2019-03-21T07:15:25.033Z,100363.08
2019-03-21T07:20:30.856Z,100362.42
2019-03-21T07:25:36.631Z,100364.03
2019-03-21T07:30:42.401Z,100357.54
2019-03-21T07:35:48.323Z,100359.27
2019-03-21T07:40:54.176Z,100357.18
2019-03-21T07:46:00.090Z,100358.07
2019-03-21T07:51:05.863Z,100356.80
2019-03-21T07:56:11.678Z,100358.96
2019-03-21T08:01:17.708Z,100364.72
2019-03-21T08:06:23.471Z,100366.56
2019-03-21T08:11:29.347Z,100357.62
2019-03-21T08:16:35.180Z,100359.11
2019-03-21T08:21:40.995Z,100361.38
2019-03-21T08:26:46.741Z,100354.72
2019-03-21T08:31:52.657Z,100343.97
2019-03-21T08:36:58.478Z,100337.14
2019-03-21T08:42:04.464Z,100335.73
2019-03-21T08:47:10.239Z,100348.82
2019-03-21T08:52:16.083Z,100351.44
2019-03-21T08:57:22.007Z,100349.81
2019-03-21T09:02:27.900Z,100354.98
2019-03-21T09:42:35.721Z,100323.30
2019-03-21T09:47:41.878Z,100325.34
2019-03-21T09:52:47.626Z,100318.48
2019-03-21T09:57:53.640Z,100308.92
2019-03-21T10:02:59.507Z,100308.96
2019-03-21T10:08:05.803Z,100302.19
2019-03-21T10:13:11.746Z,100303.50
2019-03-21T10:18:17.779Z,100310.48
2019-03-21T10:23:23.662Z,100307.14
2019-03-21T10:28:29.571Z,100300.27
2019-03-21T10:33:35.443Z,100297.69
2019-03-21T10:38:41.218Z,100302.03
2019-03-21T10:43:47.234Z,100300.16
2019-03-21T10:48:53.073Z,100299.79
2019-03-21T10:54:01.229Z,100291.63
2019-03-21T10:59:06.970Z,100282.01
2019-03-21T11:04:12.742Z,100289.13
2019-03-21T11:09:18.502Z,100281.54
2019-03-21T11:14:24.283Z,100279.30
2019-03-21T11:19:30.038Z,100273.77
2019-03-21T11:24:36.131Z,100266.31
2019-03-21T11:29:41.922Z,100261.53
2019-03-21T11:34:47.681Z,100261.85
2019-03-21T11:39:53.534Z,100251.39
2019-03-21T11:45:00.032Z,100248.37
2019-03-21T11:50:06.702Z,100232.22
2019-03-21T11:55:12.735Z,100224.87
2019-03-21T12:00:18.558Z,100215.57
2019-03-21T12:05:24.326Z,100209.30
2019-03-21T12:10:30.486Z,100210.74
2019-03-21T12:15:38.684Z,100204.58
2019-03-21T12:20:44.948Z,100201.25
2019-03-21T12:25:50.983Z,100184.49
2019-03-21T12:30:56.846Z,100179.40
2019-03-21T12:36:02.668Z,100171.17
2019-03-21T12:41:08.642Z,100162.91
2019-03-21T12:46:16.117Z,100154.84
2019-03-21T12:51:22.383Z,100150.05
2019-03-21T12:56:28.403Z,100147.54
2019-03-21T13:01:34.280Z,100142.86
2019-03-21T13:06:40.245Z,100136.58
2019-03-21T13:11:46.051Z,100126.77
2019-03-21T13:16:51.845Z,100122.19
2019-03-21T13:21:58.974Z,100118.17
2019-03-21T13:27:05.156Z,100117.80
2019-03-21T13:32:11.250Z,100110.75
2019-03-21T13:37:17.454Z,100106.86
2019-03-21T13:42:23.411Z,100107.89
2019-03-21T13:47:29.247Z,100098.67
2019-03-21T13:52:35.046Z,100099.11
2019-03-21T13:57:40.900Z,100102.59
2019-03-21T14:02:46.724Z,100090.36
2019-03-21T14:07:52.494Z,100088.34
2019-03-21T14:12:58.358Z,100084.86
2019-03-21T14:18:04.583Z,100075.14
2019-03-21T14:23:16.982Z,100069.61
2019-03-21T14:28:17.938Z,100071.45
2019-03-21T14:33:24.039Z,100070.09
2019-03-21T14:38:29.778Z,100067.41
2019-03-21T14:43:35.531Z,100059.14
2019-03-21T14:48:41.296Z,100048.92
2019-03-21T14:53:47.156Z,100047.09
2019-03-21T14:58:53.367Z,100044.89
2019-03-21T15:03:59.721Z,100045.53
2019-03-21T15:09:07.414Z,100038.94
2019-03-21T15:14:13.770Z,100038.44
2019-03-21T15:19:19.869Z,100027.86
2019-03-21T15:24:27.016Z,100022.25
2019-03-21T15:29:35.349Z,100019.27
2019-03-21T15:34:40.236Z,100014.51
2019-03-21T15:39:45.976Z,100007.72
2019-03-21T15:44:51.902Z,100011.88
2019-03-21T15:49:58.130Z,100010.88
2019-03-21T15:55:04.987Z,100010.41
2019-03-21T16:00:11.569Z,100003.07
2019-03-21T16:05:17.484Z,99998.56
2019-03-21T16:10:23.223Z,99994.23
2019-03-21T16:15:28.957Z,99988.88
2019-03-21T16:20:35.325Z,99986.13
2019-03-21T16:25:41.069Z,99985.60
2019-03-21T16:30:48.041Z,99982.64
2019-03-21T16:39:15.156Z,99984.28
2019-03-21T16:44:21.393Z,99982.88
2019-03-21T16:49:27.161Z,99983.44
2019-03-21T16:54:32.991Z,99980.80
2019-03-21T16:59:40.059Z,99984.29
2019-03-21T17:04:46.421Z,99980.67
2019-03-21T17:09:52.942Z,99983.66
2019-03-21T17:15:00.478Z,99984.59
2019-03-21T17:20:07.449Z,99991.22
2019-03-21T17:25:14.205Z,99998.75
2019-03-21T17:30:22.004Z,100002.30
2019-03-21T17:35:27.760Z,99998.25
2019-03-21T17:40:33.860Z,100012.06
2019-03-21T17:45:39.735Z,100012.18
2019-03-21T17:50:45.518Z,100011.62
2019-03-21T17:55:51.683Z,100006.16
2019-03-21T18:00:57.438Z,100012.81
2019-03-21T18:06:04.613Z,100016.34
2019-03-21T18:11:10.423Z,100029.03
2019-03-21T18:16:18.555Z,100027.28
2019-03-21T18:21:23.717Z,100025.88
2019-03-21T18:26:29.459Z,100029.98
2019-03-21T18:31:35.263Z,100043.45
2019-03-21T18:36:41.126Z,100039.73
2019-03-21T18:41:46.860Z,100038.91
2019-03-21T18:46:52.809Z,100045.75
2019-03-21T18:51:58.611Z,100051.56
2019-03-21T18:57:04.460Z,100062.73
2019-03-21T19:02:10.449Z,100062.96
2019-03-21T19:07:16.185Z,100068.22
2019-03-21T19:12:21.907Z,100056.86
2019-03-21T19:17:27.927Z,100058.31
2019-03-21T19:22:33.688Z,100057.52
2019-03-21T19:27:39.934Z,100058.86
2019-03-21T19:32:46.497Z,100068.27
2019-03-21T19:37:52.628Z,100064.59
2019-03-21T19:42:58.450Z,100063.16
2019-03-21T19:48:04.336Z,100071.58
2019-03-21T19:53:10.200Z,100070.19
2019-03-21T19:58:16.682Z,100075.85
2019-03-21T20:03:22.432Z,100078.07
2019-03-21T20:08:28.237Z,100078.91
2019-03-21T20:13:33.967Z,100076.20
2019-03-21T20:18:40.217Z,100079.45
2019-03-21T20:23:46.040Z,100080.81
2019-03-21T20:28:51.941Z,100075.47
2019-03-21T20:33:57.739Z,100083.52
2019-03-21T20:39:04.203Z,100086.33
2019-03-21T20:44:15.214Z,100079.31
2019-03-21T20:49:17.679Z,100090.99
2019-03-21T20:54:23.621Z,100089.11
2019-03-21T20:59:29.579Z,100088.50
2019-03-21T21:04:35.320Z,100085.08
2019-03-21T21:09:41.204Z,100085.23
2019-03-21T21:14:47.961Z,100088.86
2019-03-21T21:19:53.820Z,100090.02
2019-03-21T21:24:59.635Z,100082.59
2019-03-21T21:30:06.683Z,100075.06
2019-03-21T21:35:12.420Z,100074.44
2019-03-21T21:40:19.106Z,100068.41
2019-03-21T21:45:26.149Z,100065.91
2019-03-21T21:50:31.930Z,100070.11
2019-03-21T21:55:38.356Z,100069.83
2019-03-21T22:00:44.148Z,100076.22
2019-03-21T22:05:49.951Z,100066.93
2019-03-21T22:10:55.994Z,100069.60
2019-03-21T22:16:01.793Z,100070.19
2019-03-21T22:21:07.930Z,100068.22
2019-03-21T22:26:14.282Z,100071.11
2019-03-21T22:31:20.459Z,100072.09
2019-03-21T22:36:26.217Z,100063.22
2019-03-21T22:41:32.089Z,100066.77
2019-03-21T22:46:38.208Z,100059.84
2019-03-21T22:51:44.114Z,100067.20
2019-03-21T22:56:49.932Z,100064.38
2019-03-21T23:01:55.759Z,100064.38
2019-03-21T23:07:01.562Z,100050.95
2019-03-21T23:12:07.519Z,100057.30
2019-03-21T23:17:13.343Z,100055.77
2019-03-21T23:22:20.139Z,100061.33
2019-03-21T23:27:26.042Z,100056.75
2019-03-21T23:32:31.855Z,100057.63
2019-03-21T23:37:37.929Z,100059.93
2019-03-21T23:42:43.897Z,100057.81
2019-03-21T23:47:49.629Z,100048.81
2019-03-21T23:52:55.646Z,100045.28
2019-03-21T23:58:01.502Z,100044.71
